CheckWX is a tool to help pilots better visualize weather data.  It is not intended as a substitute for an official pre-flight weather briefing.

12:33:11 UTC

KHNZ METAR
Henderson-Oxford Airport
Oxford, North Carolina, USA
Current

8 mins ago

KHNZ 221225Z AUTO 10011G18KT 5SM -RA OVC007 06/06 A3029 RMK AO2 P0002 T00630056
Observed
Feb-22 @ 12:25 UTC
Wind
  • 100° at 11 KTS
  • Gusting to KTS
Visibility
5 SM
Flight Rules
IFR
Conditions
Light Rain
Cloud Levels
  • Overcast at 700' AGL
Temperature
C / 43°F
Dewpoint
C / 43°F
Humidity
100%
Altimeter
30.29" Hg
Pressure
1025.72 hPa
Current Rain
0.02"
Previous

28 mins ago

KHNZ 221205Z AUTO 06011KT 7SM RA OVC005 08/07 A3028 RMK AO2 P0001 T00770074
Observed
Feb-22 @ 12:05 UTC
Wind
  • 060° at 11 KTS
Visibility
7 SM
Flight Rules
IFR
Conditions
Rain
Cloud Levels
  • Overcast at 500' AGL
Temperature
C / 46°F
Dewpoint
C / 45°F
Humidity
93%
Altimeter
30.28" Hg
Pressure
1025.42 hPa
Current Rain
0.01"
Previous

48 mins ago

KHNZ 221145Z AUTO 05007KT 5SM RA OVC005 08/08 A3027 RMK AO2 P0002 T00830080
Observed
Feb-22 @ 11:45 UTC
Wind
  • 050° at 7 KTS
Visibility
5 SM
Flight Rules
IFR
Conditions
Rain
Cloud Levels
  • Overcast at 500' AGL
Temperature
C / 46°F
Dewpoint
C / 46°F
Humidity
100%
Altimeter
30.27" Hg
Pressure
1025.02 hPa
Current Rain
0.02"